Time;durP1;ratioP1;P1;durP2;ratioP2;P2;SDS_P1;SDS_P2;PMS_P1;PMS_P2;Temp;Humidity;BMP_temperature;BMP_pressure;BME280_temperature;BME280_humidity;BME280_pressure;Samples;Min_cycle;Max_cycle;Signal;HPM_P1;HPM_P2
2022/05/21 00:01:58;;;;;;;7.22;4.15;;;15.70;99.90;;;15.50;100.00;97623.88;4981407;28;20092;-39
2022/05/21 00:04:24;;;;;;;3.97;3.47;;;15.70;99.90;;;15.45;100.00;97635.63;4966477;28;20029;-38
2022/05/21 00:06:50;;;;;;;6.63;3.70;;;15.60;99.90;;;15.42;100.00;97633.13;4992312;28;20041;-38
2022/05/21 00:09:18;;;;;;;5.57;3.90;;;15.60;99.90;;;15.46;100.00;97639.13;4989383;28;20048;-38
2022/05/21 00:11:44;;;;;;;6.03;3.60;;;15.60;99.90;;;15.45;100.00;97646.25;4981680;28;20041;-38
2022/05/21 00:14:10;;;;;;;5.47;3.97;;;15.60;99.90;;;15.46;100.00;97639.97;4982246;28;20056;-38
2022/05/21 00:16:37;;;;;;;4.57;2.97;;;15.60;99.90;;;15.43;100.00;97647.25;4995229;28;20210;-38
2022/05/21 00:19:03;;;;;;;5.32;4.00;;;15.60;99.90;;;15.38;100.00;97650.16;4995156;28;20536;-38
2022/05/21 00:21:29;;;;;;;7.03;3.80;;;15.60;99.90;;;15.34;100.00;97645.94;5001774;28;20475;-38
2022/05/21 00:23:55;;;;;;;5.50;3.75;;;15.50;99.90;;;15.34;100.00;97640.63;5002923;28;20034;-39
2022/05/21 00:26:21;;;;;;;6.63;3.55;;;15.50;99.90;;;15.36;100.00;97656.47;5002301;28;20521;-38
2022/05/21 00:28:49;;;;;;;5.90;3.60;;;15.50;99.90;;;15.34;100.00;97655.72;5000107;28;20033;-38
2022/05/21 00:31:18;;;;;;;5.40;3.60;;;15.50;99.90;;;15.22;100.00;97660.72;4996244;28;20049;-38
2022/05/21 00:33:46;;;;;;;3.75;2.70;;;15.40;99.90;;;15.20;100.00;97662.63;4996156;28;20089;-38
2022/05/21 00:36:13;;;;;;;6.25;3.30;;;15.30;99.90;;;15.21;100.00;97660.81;4998354;28;20021;-38
2022/05/21 00:38:40;;;;;;;5.90;3.35;;;15.30;99.90;;;15.13;100.00;97657.66;4997382;28;20058;-38
2022/05/21 00:41:09;;;;;;;6.53;3.20;;;15.40;99.90;;;15.15;100.00;97661.13;4996325;28;20022;-39
2022/05/21 00:43:52;;;;;;;4.18;3.28;;;15.30;99.90;;;15.10;100.00;97661.34;4999005;28;20034;-38
2022/05/21 00:46:34;;;;;;;7.10;3.70;;;15.30;99.90;;;15.05;100.00;97672.19;4999293;28;20022;-38
2022/05/21 00:49:11;;;;;;;5.17;3.50;;;15.20;99.90;;;14.95;100.00;97678.94;4996535;28;20725;-38
2022/05/21 00:51:49;;;;;;;5.20;3.17;;;15.20;99.90;;;14.83;100.00;97672.44;4999740;28;20335;-38
2022/05/21 00:54:18;;;;;;;5.10;3.53;;;15.00;99.90;;;14.78;100.00;97673.59;4997646;28;20038;-38
2022/05/21 00:56:52;;;;;;;7.75;3.00;;;15.00;99.90;;;14.72;100.00;97676.56;4982222;28;20050;-39
2022/05/21 01:02:07;;;;;;;4.38;3.22;;;14.80;99.90;;;14.61;100.00;97679.75;4997210;28;20521;-38
2022/05/21 01:04:34;;;;;;;5.00;3.47;;;14.80;99.90;;;14.52;100.00;97675.72;4983007;28;21016;-38
2022/05/21 01:07:02;;;;;;;4.15;3.20;;;14.70;99.90;;;14.40;100.00;97668.34;4985688;28;20095;-38
2022/05/21 01:09:28;;;;;;;3.75;2.95;;;14.70;99.90;;;14.26;100.00;97653.91;4995033;28;21020;-38
2022/05/21 01:11:55;;;;;;;4.95;3.30;;;14.60;99.90;;;14.45;100.00;97682.25;4997347;28;20555;-38
2022/05/21 01:14:22;;;;;;;6.80;3.00;;;14.60;99.90;;;14.40;100.00;97671.84;4990519;28;20393;-38
2022/05/21 01:16:50;;;;;;;13.57;3.20;;;14.60;99.90;;;14.46;100.00;97689.25;4979793;28;20279;-38
2022/05/21 01:19:15;;;;;;;6.93;3.00;;;14.60;99.90;;;14.39;100.00;97679.88;4996089;28;20080;-38
2022/05/21 01:21:41;;;;;;;6.40;2.90;;;14.60;99.90;;;14.40;100.00;97694.88;4993887;28;20030;-38
2022/05/21 01:24:09;;;;;;;3.75;2.85;;;14.60;99.90;;;14.32;100.00;97692.59;4993760;28;20061;-38
2022/05/21 01:26:36;;;;;;;3.70;2.60;;;14.50;99.90;;;14.36;100.00;97690.66;4993057;28;20390;-38
2022/05/21 01:29:05;;;;;;;3.25;2.60;;;14.50;99.90;;;14.26;100.00;97691.06;4981392;28;20045;-38
2022/05/21 01:31:34;;;;;;;3.20;2.90;;;14.50;99.90;;;14.26;100.00;97688.41;4998027;28;20037;-38
2022/05/21 01:34:00;;;;;;;4.18;2.65;;;14.40;99.90;;;14.18;100.00;97697.69;4998260;28;20409;-38
2022/05/21 01:36:25;;;;;;;4.05;2.78;;;14.40;99.90;;;14.08;100.00;97692.78;4994060;28;20041;-38
2022/05/21 01:38:51;;;;;;;7.80;2.80;;;14.30;99.90;;;14.08;100.00;97694.59;4995972;28;20456;-38
2022/05/21 01:41:17;;;;;;;4.15;2.63;;;14.30;99.90;;;14.01;100.00;97701.09;4995561;28;20493;-39
2022/05/21 01:46:29;;;;;;;4.40;3.00;;;14.20;99.90;;;13.89;100.00;97706.03;4993127;28;20112;-38
2022/05/21 01:48:55;;;;;;;3.33;2.60;;;14.20;99.90;;;13.91;100.00;97712.13;4996856;28;20049;-38
2022/05/21 01:51:21;;;;;;;6.03;3.13;;;14.10;99.90;;;13.87;100.00;97715.88;4992625;28;20029;-38
2022/05/21 01:53:47;;;;;;;7.50;3.05;;;14.10;99.90;;;13.87;100.00;97725.59;4990715;28;20161;-38
2022/05/21 01:56:14;;;;;;;4.55;3.00;;;14.10;99.90;;;13.77;100.00;97732.25;5005623;23;20086;-39
2022/05/21 01:58:41;;;;;;;6.57;3.78;;;14.00;99.90;;;13.76;100.00;97741.97;4989725;28;20045;-39
2022/05/21 02:01:09;;;;;;;6.53;3.22;;;14.00;99.90;;;13.70;100.00;97742.25;4990065;28;20037;-39
2022/05/21 02:03:35;;;;;;;3.70;2.70;;;13.90;99.90;;;13.62;100.00;97750.56;4988551;28;20140;-38
2022/05/21 02:06:01;;;;;;;3.92;2.65;;;13.90;99.90;;;13.60;100.00;97751.53;4963335;28;20041;-39
2022/05/21 02:08:27;;;;;;;7.43;2.83;;;13.80;99.90;;;13.46;100.00;97741.53;4974519;28;20398;-39
2022/05/21 02:10:52;;;;;;;6.82;2.92;;;13.80;99.90;;;13.41;100.00;97764.72;4972185;28;20046;-39
2022/05/21 02:13:31;;;;;;;5.18;2.55;;;13.70;99.90;;;13.37;100.00;97758.69;4968615;28;20070;-39
2022/05/21 02:15:57;;;;;;;3.00;2.30;;;13.70;99.90;;;13.31;100.00;97767.72;4973546;28;20054;-39
2022/05/21 02:18:24;;;;;;;4.05;2.13;;;13.60;99.90;;;13.25;100.00;97764.47;4974359;28;20539;-39
2022/05/21 02:20:51;;;;;;;6.30;2.33;;;13.60;99.90;;;13.18;100.00;97766.50;4971232;28;20027;-39
2022/05/21 02:23:17;;;;;;;6.65;2.88;;;13.50;99.90;;;13.18;100.00;97764.72;4974072;28;20069;-39
2022/05/21 02:25:44;;;;;;;5.13;2.95;;;13.40;99.90;;;13.11;100.00;97770.34;4972769;28;20069;-38
2022/05/21 02:28:12;;;;;;;6.65;3.08;;;13.40;99.90;;;13.05;100.00;97773.25;4972289;28;20054;-39
2022/05/21 02:30:38;;;;;;;5.38;3.15;;;13.30;99.90;;;12.97;100.00;97773.53;4954871;28;20470;-40
2022/05/21 02:33:04;;;;;;;3.60;2.53;;;13.30;99.90;;;12.92;100.00;97784.34;4974951;28;20055;-39
2022/05/21 02:35:30;;;;;;;5.88;2.70;;;13.20;99.90;;;12.86;100.00;97784.56;4975197;28;20069;-39
2022/05/21 02:40:40;;;;;;;4.57;2.80;;;13.20;99.90;;;12.76;100.00;97783.22;4972674;28;20116;-39
2022/05/21 02:43:06;;;;;;;5.40;2.95;;;13.10;99.90;;;12.71;100.00;97785.19;4971268;28;20038;-39
2022/05/21 02:45:31;;;;;;;6.40;3.25;;;13.00;99.90;;;12.67;100.00;97781.78;4973163;28;20069;-39
2022/05/21 02:47:58;;;;;;;6.70;3.58;;;13.00;99.90;;;12.54;100.00;97765.53;4975721;28;20069;-39
2022/05/21 02:50:33;;;;;;;5.88;3.13;;;12.90;99.90;;;12.61;100.00;97784.66;4971531;28;20541;-39
2022/05/21 02:53:03;;;;;;;6.45;3.17;;;12.90;99.90;;;12.58;100.00;97783.00;4973620;28;20049;-39
2022/05/21 02:55:30;;;;;;;4.32;2.90;;;12.90;99.90;;;12.40;100.00;97757.28;4971226;28;20034;-38
2022/05/21 02:57:56;;;;;;;4.43;3.20;;;12.90;99.90;;;12.49;100.00;97779.84;4972211;28;20037;-39
2022/05/21 03:00:26;;;;;;;5.60;4.20;;;12.80;99.90;;;12.44;100.00;97777.41;4968404;28;20268;-39
2022/05/21 03:02:53;;;;;;;5.38;3.42;;;12.80;99.90;;;12.40;100.00;97781.94;4969909;28;20085;-39
2022/05/21 03:05:19;;;;;;;8.05;3.55;;;12.80;99.90;;;12.30;100.00;97780.56;4972324;28;20381;-39
2022/05/21 03:07:48;;;;;;;5.57;3.50;;;12.70;99.90;;;12.27;100.00;97788.59;4973125;28;20105;-40
2022/05/21 03:10:23;;;;;;;6.55;3.00;;;12.60;99.90;;;12.26;100.00;97792.19;4970268;28;20486;-39
2022/05/21 03:12:50;;;;;;;4.15;2.63;;;12.60;99.90;;;12.20;100.00;97792.38;4971463;28;20117;-39
2022/05/21 03:15:17;;;;;;;5.70;3.20;;;12.50;99.90;;;12.14;100.00;97801.41;4969748;28;21222;-39
2022/05/21 03:17:46;;;;;;;4.18;2.35;;;12.50;99.90;;;12.08;100.00;97793.72;4972449;28;20050;-39
2022/05/21 03:20:14;;;;;;;3.72;3.05;;;12.50;99.90;;;12.03;100.00;97800.97;4969780;28;20026;-39
2022/05/21 03:22:41;;;;;;;8.18;3.92;;;12.40;99.90;;;11.94;100.00;97801.28;4972059;28;20034;-39
2022/05/21 03:25:09;;;;;;;5.65;3.92;;;12.30;99.90;;;11.90;100.00;97810.19;4969668;28;20456;-39
2022/05/21 03:27:35;;;;;;;4.53;2.90;;;12.30;99.90;;;11.85;100.00;97813.88;4968973;28;20640;-39
2022/05/21 03:30:03;;;;;;;4.70;3.33;;;12.30;99.90;;;11.82;100.00;97808.69;4970746;28;22155;-39
2022/05/21 03:32:29;;;;;;;5.00;3.05;;;12.20;99.90;;;11.74;100.00;97810.75;4974297;28;20081;-39
2022/05/21 03:34:54;;;;;;;4.85;3.05;;;12.10;99.90;;;11.72;100.00;97812.59;4974534;28;20043;-39
2022/05/21 03:37:20;;;;;;;5.70;3.08;;;12.10;99.90;;;11.70;100.00;97816.19;4973229;28;20438;-39
2022/05/21 03:39:46;;;;;;;5.57;3.25;;;12.10;99.90;;;11.67;100.00;97813.69;4970824;28;20494;-39
2022/05/21 03:42:11;;;;;;;4.10;3.45;;;12.10;99.90;;;11.64;100.00;97810.19;4969889;28;20026;-39
2022/05/21 03:44:37;;;;;;;5.05;3.10;;;12.00;99.90;;;11.61;100.00;97810.31;4970476;28;20117;-39
2022/05/21 03:47:03;;;;;;;5.82;3.42;;;12.00;99.90;;;11.56;100.00;97816.69;4972460;28;20038;-39
2022/05/21 03:49:30;;;;;;;7.97;3.13;;;12.00;99.90;;;11.57;100.00;97818.41;4973504;28;20037;-39
2022/05/21 03:51:55;;;;;;;5.13;3.30;;;12.00;99.90;;;11.53;100.00;97822.91;4973664;28;20045;-39
2022/05/21 03:54:21;;;;;;;5.43;3.05;;;11.90;99.90;;;11.51;100.00;97827.41;4970777;28;20042;-39
2022/05/21 03:56:47;;;;;;;5.85;3.03;;;11.90;99.90;;;11.49;100.00;97831.03;4970359;28;20030;-39
2022/05/21 03:59:13;;;;;;;3.67;3.05;;;11.90;99.90;;;11.48;100.00;97839.84;4971753;28;20530;-39
2022/05/21 04:01:41;;;;;;;4.22;3.20;;;11.90;99.90;;;11.46;100.00;97837.25;4967024;28;20046;-39
2022/05/21 04:04:07;;;;;;;3.60;2.88;;;11.90;99.90;;;11.45;100.00;97840.81;4975102;28;20042;-39
2022/05/21 04:06:33;;;;;;;5.30;3.13;;;11.80;99.90;;;11.41;100.00;97840.06;4971422;28;20088;-39
2022/05/21 04:08:59;;;;;;;5.38;3.05;;;11.80;99.90;;;11.40;100.00;97845.38;4973470;28;20038;-39
2022/05/21 04:11:25;;;;;;;5.45;3.55;;;11.80;99.90;;;11.37;100.00;97830.50;4971766;28;20037;-39
2022/05/21 04:13:50;;;;;;;4.40;3.40;;;11.80;99.90;;;11.41;100.00;97839.19;4969928;28;20129;-39
2022/05/21 04:16:16;;;;;;;4.32;3.00;;;11.80;99.90;;;11.40;100.00;97840.97;4970442;28;20062;-39
2022/05/21 04:18:42;;;;;;;6.82;3.75;;;11.80;99.90;;;11.38;100.00;97844.59;4974602;28;20470;-39
2022/05/21 04:21:08;;;;;;;6.30;3.30;;;11.80;99.90;;;11.37;100.00;97848.97;4973492;28;20062;-39
2022/05/21 04:23:33;;;;;;;4.50;3.20;;;11.80;99.90;;;11.39;100.00;97846.28;4975236;28;20045;-39
2022/05/21 04:25:59;;;;;;;7.68;3.55;;;11.80;99.90;;;11.41;100.00;97847.97;4970846;28;20037;-39
2022/05/21 04:28:25;;;;;;;4.05;3.10;;;11.80;99.90;;;11.43;100.00;97839.97;4961721;28;20459;-39
2022/05/21 04:30:51;;;;;;;4.72;3.30;;;11.80;99.90;;;11.42;100.00;97830.34;4969442;28;20464;-39
2022/05/21 04:33:16;;;;;;;6.68;3.55;;;11.90;99.90;;;11.44;100.00;97845.22;4970401;28;20870;-39
2022/05/21 04:38:26;;;;;;;5.10;3.58;;;11.90;99.90;;;11.51;100.00;97840.59;4971199;28;20185;-39
2022/05/21 04:40:52;;;;;;;4.10;2.75;;;11.90;99.90;;;11.55;100.00;97842.22;4972709;28;20072;-39
2022/05/21 04:43:17;;;;;;;7.63;4.03;;;11.90;99.90;;;11.60;100.00;97842.06;4972266;28;20691;-39
2022/05/21 04:45:43;;;;;;;3.28;2.90;;;12.00;99.90;;;11.63;100.00;97850.75;4975251;28;20410;-39
2022/05/21 04:48:10;;;;;;;3.75;2.75;;;12.10;99.90;;;11.70;100.00;97834.69;4975906;28;20038;-39
2022/05/21 04:50:38;;;;;;;7.97;3.65;;;12.10;99.90;;;11.76;100.00;97855.63;4976637;28;20042;-39
2022/05/21 04:53:04;;;;;;;4.85;2.60;;;12.10;99.90;;;11.78;100.00;97849.38;4974321;28;20034;-39
2022/05/21 04:55:30;;;;;;;4.18;3.03;;;12.20;99.90;;;11.81;100.00;97845.75;4972513;28;20035;-39
2022/05/21 04:57:56;;;;;;;4.97;2.83;;;12.20;99.90;;;11.90;100.00;97848.13;4974984;28;20033;-39
2022/05/21 05:00:22;;;;;;;5.85;3.08;;;12.20;99.90;;;12.01;100.00;97851.22;4976912;28;20045;-39
2022/05/21 05:02:48;;;;;;;3.20;2.85;;;12.30;99.90;;;12.07;100.00;97857.22;4971572;28;20382;-39
2022/05/21 05:05:14;;;;;;;4.75;2.00;;;12.40;99.90;;;12.11;100.00;97843.81;4973329;28;20046;-39
2022/05/21 05:07:40;;;;;;;3.08;2.20;;;12.50;99.90;;;12.21;100.00;97847.88;4975678;28;20042;-39
2022/05/21 05:10:08;;;;;;;8.23;2.92;;;12.60;99.90;;;12.29;100.00;97846.72;4979407;28;20201;-39
2022/05/21 05:12:34;;;;;;;3.83;2.72;;;12.70;99.90;;;12.47;100.00;97847.81;4972491;28;20026;-39
2022/05/21 05:15:00;;;;;;;4.05;2.58;;;12.80;99.90;;;12.45;100.00;97847.88;4971297;28;20062;-39
2022/05/21 05:17:27;;;;;;;3.70;2.42;;;12.80;99.90;;;12.56;100.00;97855.41;4961992;28;20034;-39
2022/05/21 05:19:56;;;;;;;2.53;1.83;;;12.90;99.90;;;12.73;100.00;97853.00;4977709;28;20117;-39
2022/05/21 05:22:22;;;;;;;2.33;1.70;;;13.10;99.90;;;13.03;100.00;97847.44;4974884;28;20038;-39
2022/05/21 05:24:49;;;;;;;2.75;2.10;;;13.20;99.90;;;13.10;100.00;97840.09;4953965;28;20034;-39
2022/05/21 05:27:15;;;;;;;5.25;1.95;;;13.40;99.90;;;13.23;100.00;97859.88;4973031;28;20038;-39
2022/05/21 05:29:41;;;;;;;2.90;1.90;;;13.50;99.90;;;13.31;100.00;97857.78;4971602;28;20105;-39
2022/05/21 05:32:08;;;;;;;4.88;1.80;;;13.60;99.90;;;13.51;100.00;97859.66;4973999;28;20542;-39
2022/05/21 05:34:35;;;;;;;4.03;1.73;;;13.70;99.90;;;13.92;100.00;97850.84;4969485;28;20035;-39
2022/05/21 05:37:01;;;;;;;4.78;1.90;;;13.90;99.90;;;14.30;97.68;97849.19;4973071;28;20395;-39
2022/05/21 05:39:28;;;;;;;2.63;1.65;;;14.20;99.90;;;14.55;94.24;97860.47;4975583;28;20041;-39
2022/05/21 05:41:54;;;;;;;1.95;1.55;;;14.40;99.90;;;14.91;91.23;97860.59;4968641;28;20038;-39
2022/05/21 05:44:20;;;;;;;2.90;1.58;;;14.60;99.90;;;15.13;86.35;97868.41;4964538;28;20038;-39
2022/05/21 05:46:47;;;;;;;2.58;1.23;;;14.90;99.90;;;15.30;85.56;97869.38;4973646;28;20145;-39
2022/05/21 05:49:12;;;;;;;2.67;1.60;;;15.10;99.90;;;15.15;83.90;97871.00;4976519;28;20124;-39
2022/05/21 05:51:38;;;;;;;2.85;1.80;;;15.10;99.90;;;15.11;83.27;97866.75;4970371;28;20783;-39
2022/05/21 05:54:04;;;;;;;3.25;1.42;;;15.20;99.90;;;15.16;85.17;97862.94;4969719;28;20046;-39
2022/05/21 05:56:30;;;;;;;3.28;1.40;;;15.20;99.90;;;15.10;83.44;97867.69;4957529;28;20200;-39
2022/05/21 06:01:40;;;;;;;2.58;1.50;;;15.20;99.90;;;15.11;81.05;97867.63;4971915;28;20038;-39
2022/05/21 06:04:05;;;;;;;5.53;1.48;;;15.20;99.90;;;15.12;85.78;97866.69;4974027;28;20037;-39
2022/05/21 06:06:31;;;;;;;2.55;1.58;;;15.20;99.90;;;15.03;80.41;97864.47;4971471;28;20217;-39
2022/05/21 06:08:58;;;;;;;2.03;1.40;;;15.30;99.90;;;15.09;83.07;97872.13;4975034;28;20614;-39
2022/05/21 06:11:24;;;;;;;4.40;1.30;;;15.30;99.90;;;15.12;79.27;97876.44;4972918;28;20031;-39
2022/05/21 06:13:50;;;;;;;2.58;1.50;;;15.30;99.90;;;15.20;82.25;97874.28;4970707;28;20062;-39
2022/05/21 06:16:16;;;;;;;1.88;1.13;;;15.40;99.90;;;15.25;80.68;97888.19;4971856;28;20038;-39
2022/05/21 06:18:42;;;;;;;2.30;1.17;;;15.40;99.90;;;15.34;84.51;97885.09;4972539;28;20051;-39
2022/05/21 06:21:09;;;;;;;1.65;1.15;;;15.50;99.90;;;15.35;81.43;97885.97;4972720;28;20069;-39
2022/05/21 06:23:35;;;;;;;2.03;1.10;;;15.60;99.90;;;15.37;79.00;97895.59;4971726;28;20035;-39
2022/05/21 06:26:01;;;;;;;4.18;1.38;;;15.60;99.90;;;15.15;72.40;97884.28;4976123;28;20034;-39
2022/05/21 06:28:29;;;;;;;3.13;1.10;;;15.60;99.90;;;15.23;75.50;97893.59;4970741;28;20117;-39
2022/05/21 06:30:55;;;;;;;1.67;1.00;;;15.50;99.90;;;15.32;74.84;97896.75;4970466;28;20318;-39
2022/05/21 06:33:30;;;;;;;2.10;1.15;;;15.60;99.90;;;15.43;72.95;97895.31;4973806;28;20458;-38
2022/05/21 06:36:08;;;;;;;3.60;1.48;;;15.70;99.90;;;15.54;72.67;97893.91;4961858;28;20031;-38
2022/05/21 06:38:35;;;;;;;1.80;0.95;;;15.80;99.90;;;15.61;73.09;97897.97;4976039;28;20562;-38
2022/05/21 06:41:02;;;;;;;2.25;1.23;;;15.90;99.90;;;15.65;72.74;97888.94;4972110;28;20573;-38
2022/05/21 06:43:28;;;;;;;2.15;0.90;;;15.90;99.90;;;15.75;72.04;97890.22;4972502;28;20092;-38
2022/05/21 06:45:54;;;;;;;3.28;1.15;;;16.10;99.90;;;15.94;76.93;97889.28;4965896;28;20050;-38
2022/05/21 06:48:20;;;;;;;4.32;1.15;;;16.30;99.90;;;16.24;77.32;97894.84;4972520;28;20444;-39
2022/05/21 06:50:46;;;;;;;3.05;0.88;;;16.50;99.90;;;16.40;68.34;97903.75;4971760;28;20525;-38
2022/05/21 06:53:12;;;;;;;1.50;1.00;;;16.70;99.90;;;16.38;65.93;97894.09;4954590;28;20479;-39
2022/05/21 06:55:39;;;;;;;2.10;0.82;;;16.80;99.90;;;16.60;67.63;97894.69;4952626;28;21111;-38
2022/05/21 06:58:05;;;;;;;1.42;0.90;;;16.90;99.90;;;16.63;67.86;97903.47;4972643;28;20029;-38
2022/05/21 07:00:31;;;;;;;2.30;0.90;;;17.00;99.90;;;16.60;67.54;97894.69;4971893;28;20386;-39
2022/05/21 07:02:57;;;;;;;3.20;1.08;;;16.90;99.90;;;16.66;65.53;97897.97;4970786;28;20029;-38
2022/05/21 07:08:19;;;;;;;1.65;0.82;;;17.00;99.90;;;16.89;64.81;97905.63;4975560;28;20169;-38
2022/05/21 07:10:45;;;;;;;2.53;0.88;;;17.20;99.90;;;17.08;64.18;97900.13;4970488;28;20042;-39
2022/05/21 07:13:10;;;;;;;3.78;1.02;;;17.30;99.90;;;17.17;64.15;97901.41;4971955;28;20518;-38
2022/05/21 07:15:37;;;;;;;1.63;0.80;;;17.40;99.90;;;17.18;63.78;97901.34;4972608;28;20045;-39
2022/05/21 07:18:03;;;;;;;1.70;0.90;;;17.50;99.90;;;16.99;63.78;97905.97;4973325;28;20034;-39
2022/05/21 07:20:30;;;;;;;4.22;0.98;;;17.40;99.90;;;16.96;64.82;97922.13;4969750;28;20026;-39
2022/05/21 07:22:57;;;;;;;2.25;0.90;;;17.40;99.90;;;17.20;68.26;97903.91;4967698;28;20419;-39
2022/05/21 07:25:26;;;;;;;1.33;0.93;;;17.50;99.90;;;17.30;66.16;97894.47;4971563;28;20558;-38
2022/05/21 07:27:52;;;;;;;1.45;0.75;;;17.60;99.90;;;17.51;65.64;97883.50;4968209;28;20096;-39
2022/05/21 07:30:19;;;;;;;2.47;1.00;;;17.70;99.90;;;17.19;62.74;97888.84;4975100;28;20810;-39
2022/05/21 07:32:45;;;;;;;1.35;1.00;;;17.60;99.90;;;17.05;61.68;97892.31;4970844;28;20413;-39
2022/05/21 07:35:15;;;;;;;1.92;0.85;;;17.40;99.90;;;16.93;60.96;97890.31;4976292;28;20037;-38
2022/05/21 07:37:41;;;;;;;1.65;0.90;;;17.30;99.90;;;16.84;63.06;97891.69;4971220;28;20374;-38
2022/05/21 07:40:09;;;;;;;1.40;0.80;;;17.20;99.90;;;16.82;60.01;97879.38;4970714;28;20030;-39
2022/05/21 07:42:36;;;;;;;1.27;0.65;;;17.20;99.90;;;16.95;60.45;97870.63;4972745;28;20637;-38
2022/05/21 07:45:04;;;;;;;2.97;0.93;;;17.20;99.90;;;17.08;62.47;97868.13;4976738;28;20030;-38
2022/05/21 07:47:30;;;;;;;1.65;0.60;;;17.30;99.90;;;17.07;57.88;97866.44;4973678;28;20049;-38
2022/05/21 07:49:56;;;;;;;2.35;0.60;;;17.40;99.90;;;17.02;60.11;97887.16;4971191;28;20042;-38
2022/05/21 07:52:25;;;;;;;1.30;0.43;;;17.40;99.90;;;17.07;58.78;97879.75;4972372;28;20035;-38
2022/05/21 07:54:51;;;;;;;3.70;0.70;;;17.40;99.90;;;17.20;63.48;97895.91;4973294;28;20046;-38
2022/05/21 07:57:16;;;;;;;1.60;0.70;;;17.50;99.90;;;17.17;59.81;97898.75;4976214;28;20050;-38
2022/05/21 07:59:42;;;;;;;1.83;0.70;;;17.50;99.90;;;17.22;66.08;97891.38;4968062;28;20089;-38
2022/05/21 08:02:15;;;;;;;2.92;0.68;;;17.50;99.90;;;17.28;60.71;97891.03;5019334;22;20513;-40
2022/05/21 08:04:42;;;;;;;;;;;17.60;99.90;;;17.32;58.46;97887.25;5013389;28;20265;-40
2022/05/21 08:07:08;;;;;;;2.92;0.73;;;17.70;99.90;;;17.53;61.53;97894.94;5014345;28;19913;-40
2022/05/21 08:09:34;;;;;;;1.02;0.50;;;17.80;99.90;;;17.60;59.36;97884.81;5013151;28;20209;-40
2022/05/21 08:12:00;;;;;;;1.15;0.52;;;17.80;99.90;;;17.55;58.63;97869.09;5011331;28;20051;-40
2022/05/21 08:14:26;;;;;;;1.58;0.60;;;17.90;99.90;;;17.70;61.72;97886.84;5006108;28;20387;-40
2022/05/21 08:16:51;;;;;;;0.82;0.50;;;18.00;99.90;;;17.83;62.89;97883.47;5012858;28;20044;-40
2022/05/21 08:19:17;;;;;;;0.90;0.55;;;18.00;99.90;;;17.73;57.76;97891.16;5009895;28;20076;-41
2022/05/21 08:21:43;;;;;;;1.10;0.60;;;18.10;99.90;;;17.85;58.40;97885.13;5012037;28;20528;-40
2022/05/21 08:26:56;;;;;;;2.15;0.50;;;18.10;99.90;;;18.04;61.11;97887.56;5015330;28;20405;-41
2022/05/21 08:29:27;;;;;;;0.75;0.50;;;18.30;99.90;;;17.93;55.41;97882.88;5015038;28;20108;-40
2022/05/21 08:31:54;;;;;;;2.50;0.73;;;18.30;99.80;;;18.07;62.69;97883.84;5015590;28;20088;-40
2022/05/21 08:34:21;;;;;;;1.85;0.52;;;18.40;99.90;;;18.22;57.74;97882.09;5018061;28;20481;-40
2022/05/21 08:36:47;;;;;;;2.00;0.60;;;18.50;99.90;;;18.21;57.57;97885.69;5013334;28;20047;-40
2022/05/21 08:39:14;;;;;;;1.50;0.60;;;18.50;99.90;;;18.16;55.43;97877.09;5016008;28;20688;-40
2022/05/21 08:41:56;;;;;;;2.20;0.60;;;18.50;99.10;;;18.20;55.86;97884.84;5014011;28;20508;-40
2022/05/21 08:44:46;;;;;;;;;;;18.50;99.90;;;18.13;53.25;97875.47;5015686;28;20039;-40
2022/05/21 08:47:29;;;;;;;1.38;0.63;;;18.40;98.80;;;18.13;56.18;97878.16;5012563;28;19921;-40
2022/05/21 08:50:02;;;;;;;1.20;0.40;;;18.40;99.50;;;18.00;54.64;97885.16;4995334;28;20029;-41
2022/05/21 08:52:53;;;;;;;0.90;0.60;;;18.40;98.60;;;18.01;53.21;97890.41;5013565;28;20034;-40
2022/05/21 08:55:25;;;;;;;1.65;0.40;;;18.30;98.60;;;18.04;53.71;97874.22;5013788;28;20414;-40
2022/05/21 08:57:54;;;;;;;;;;;18.40;98.20;;;18.17;54.51;97876.16;4999350;28;20033;-40
2022/05/21 09:00:37;;;;;;;2.70;1.27;;;18.40;98.60;;;18.26;56.95;97880.94;5009014;28;20007;-40
2022/05/21 09:03:20;;;;;;;1.38;0.60;;;18.50;99.70;;;18.29;54.91;97870.09;5013773;28;20052;-40
2022/05/21 09:06:18;;;;;;;1.25;0.75;;;18.60;98.60;;;18.39;56.16;97876.56;5011023;28;20073;-40
2022/05/21 09:09:03;;;;;;;0.88;0.43;;;18.70;99.90;;;18.36;58.61;97868.75;5012900;28;20038;-41
2022/05/21 09:11:49;;;;;;;1.67;0.60;;;18.70;99.90;;;18.38;54.60;97866.84;5016804;28;20033;-40
2022/05/21 09:14:42;;;;;;;0.40;0.40;;;18.70;98.70;;;18.51;55.98;97869.63;5014443;28;20037;-40
2022/05/21 09:17:18;;;;;;;1.63;0.60;;;18.80;99.00;;;18.66;56.76;97860.66;5013862;28;23214;-40
2022/05/21 09:19:58;;;;;;;1.02;0.50;;;18.90;99.40;;;18.73;55.25;97861.13;5014314;28;20530;-40
2022/05/21 09:22:25;;;;;;;1.63;0.52;;;19.00;98.80;;;18.65;56.47;97850.06;5013506;28;20473;-41
2022/05/21 09:25:03;;;;;;;1.45;0.70;;;19.00;98.80;;;18.80;57.31;97859.78;5013963;28;20493;-40
2022/05/21 09:27:39;;;;;;;3.63;0.70;;;19.00;99.50;;;18.73;54.38;97845.09;5015089;28;20041;-40
2022/05/21 09:30:24;;;;;;;3.00;0.57;;;19.10;98.10;;;18.88;58.02;97849.50;5014233;28;20072;-41
2022/05/21 09:32:57;;;;;;;0.65;0.50;;;19.10;99.40;;;18.89;56.35;97845.00;5012948;28;20029;-41
2022/05/21 09:35:31;;;;;;;1.52;0.70;;;19.10;98.80;;;18.98;56.14;97843.56;4995889;28;20052;-40
2022/05/21 09:38:18;;;;;;;1.88;0.60;;;19.10;99.00;;;19.04;55.77;97851.19;4998731;28;20034;-41
2022/05/21 09:40:43;;;;;;;0.77;0.55;;;19.20;98.60;;;19.04;54.39;97851.19;4998447;28;20113;-41
2022/05/21 09:46:26;;;;;;;1.90;0.82;;;19.30;97.60;;;18.98;53.09;97846.25;4992714;28;20044;-41
2022/05/21 09:48:54;;;;;;;1.77;0.60;;;19.30;97.60;;;18.99;54.60;97847.97;5016443;28;20029;-41
2022/05/21 09:51:32;;;;;;;2.30;0.50;;;19.20;97.70;;;18.89;54.70;97840.50;5007125;28;20039;-41
2022/05/21 09:53:59;;;;;;;3.08;0.80;;;19.20;97.80;;;18.93;56.24;97835.84;4999332;28;20104;-40
2022/05/21 09:56:34;;;;;;;1.67;0.70;;;19.20;98.50;;;18.96;55.17;97846.34;4999236;28;20033;-41
2022/05/21 09:59:29;;;;;;;1.40;0.70;;;19.20;98.10;;;19.06;55.81;97846.63;5001247;28;20133;-40
2022/05/21 10:02:14;;;;;;;1.35;0.60;;;19.30;98.30;;;19.14;54.26;97833.59;4996722;28;20100;-40
2022/05/21 10:04:49;;;;;;;1.75;0.70;;;19.40;98.20;;;19.15;55.03;97829.97;5018482;28;20868;-41
2022/05/21 10:10:59;;;;;;;0.60;0.52;;;19.40;97.50;;;19.23;55.74;97834.81;5015462;28;20112;-40
2022/05/21 10:13:36;;;;;;;1.88;0.65;;;19.40;98.10;;;19.23;56.52;97829.47;4999535;28;20030;-40
2022/05/21 10:16:43;;;;;;;1.33;0.70;;;19.50;98.40;;;19.30;54.15;97830.78;5020405;28;20076;-40
2022/05/21 10:19:23;;;;;;;1.73;0.65;;;19.50;97.20;;;19.36;55.44;97827.72;4978376;28;20047;-41
2022/05/21 10:22:27;;;;;;;0.82;0.70;;;19.60;98.00;;;19.49;54.50;97827.78;5015305;28;20044;-40
2022/05/21 10:25:08;;;;;;;2.88;0.55;;;19.70;97.70;;;19.60;55.71;97832.41;5012455;28;20611;-40
2022/05/21 10:28:31;;;;;;;1.38;0.60;;;19.80;98.10;;;19.73;53.90;97835.09;5016785;28;20029;-40
2022/05/21 10:31:39;;;;;;;1.60;0.87;;;19.90;98.60;;;19.53;52.78;97829.28;5002758;28;20053;-40
2022/05/21 10:34:13;;;;;;;1.08;0.60;;;19.90;96.60;;;19.46;52.95;97822.63;5010693;28;20033;-40
2022/05/21 10:37:20;;;;;;;2.63;0.80;;;19.80;96.80;;;19.37;52.96;97818.72;5014567;28;20040;-41
2022/05/21 10:40:26;;;;;;;2.95;0.70;;;19.70;95.90;;;19.39;53.68;97814.13;4998081;28;20022;-40
2022/05/21 10:43:44;;;;;;;1.38;0.80;;;19.70;97.00;;;19.56;55.50;97812.16;5013805;28;20056;-40
2022/05/21 10:46:51;;;;;;;0.55;0.47;;;19.80;98.30;;;19.70;55.80;97803.19;5014045;28;20069;-40
2022/05/21 10:49:38;;;;;;;1.02;0.70;;;19.90;97.70;;;19.87;54.05;97799.41;5012018;28;20041;-40
2022/05/21 10:52:34;;;;;;;2.28;0.65;;;20.10;97.30;;;20.06;55.88;97790.97;5010457;28;20044;-40
2022/05/21 10:55:18;;;;;;;1.85;0.52;;;20.20;98.10;;;20.17;54.29;97794.63;5014513;28;20060;-40